createdAt,value
2019-02-17T00:01:16.130Z,5.53
2019-02-17T00:04:23.378Z,5.40
2019-02-17T00:07:30.804Z,4.33
2019-02-17T00:10:47.327Z,5.10
2019-02-17T00:13:54.456Z,5.37
2019-02-17T00:17:01.968Z,5.63
2019-02-17T00:20:18.660Z,5.13
2019-02-17T00:23:35.262Z,6.20
2019-02-17T00:26:42.491Z,4.77
2019-02-17T00:29:59.219Z,4.67
2019-02-17T00:33:06.521Z,4.30
2019-02-17T00:36:13.592Z,3.63
2019-02-17T00:39:20.906Z,4.37
2019-02-17T00:42:27.953Z,4.13
2019-02-17T00:45:35.155Z,4.17
2019-02-17T00:48:42.276Z,3.73
2019-02-17T00:51:49.831Z,3.97
2019-02-17T00:55:06.632Z,4.87
2019-02-17T00:58:23.181Z,4.73
2019-02-17T01:01:30.400Z,5.07
2019-02-17T01:04:37.533Z,4.93
2019-02-17T01:07:44.734Z,4.23
2019-02-17T01:10:52.124Z,4.00
2019-02-17T01:14:09.001Z,4.23
2019-02-17T01:17:25.506Z,4.83
2019-02-17T01:20:33.266Z,4.53
2019-02-17T01:23:40.500Z,4.93
2019-02-17T01:26:47.696Z,4.77
2019-02-17T01:30:04.010Z,4.63
2019-02-17T01:33:20.749Z,5.00
2019-02-17T01:36:37.504Z,4.63
2019-02-17T01:39:52.311Z,4.20
2019-02-17T01:42:59.569Z,3.00
2019-02-17T01:46:07.154Z,3.50
2019-02-17T01:49:14.359Z,3.60
2019-02-17T01:52:21.540Z,4.27
2019-02-17T01:55:28.671Z,3.07
2019-02-17T01:58:36.015Z,3.43
2019-02-17T02:01:52.626Z,4.43
2019-02-17T02:04:59.760Z,3.47
2019-02-17T02:08:07.055Z,4.47
2019-02-17T02:11:14.365Z,4.90
2019-02-17T02:14:31.086Z,4.73
2019-02-17T02:17:38.258Z,4.40
2019-02-17T02:20:54.953Z,3.77
2019-02-17T02:24:02.238Z,3.77
2019-02-17T02:27:24.986Z,3.03
2019-02-17T02:30:41.756Z,3.63
2019-02-17T02:33:48.890Z,3.80
2019-02-17T02:36:56.111Z,3.37
2019-02-17T02:40:03.469Z,4.20
2019-02-17T02:43:20.038Z,2.87
2019-02-17T02:46:27.272Z,3.40
2019-02-17T02:49:34.668Z,3.40
2019-02-17T02:52:51.260Z,3.07
2019-02-17T02:55:58.396Z,2.83
2019-02-17T02:59:05.670Z,2.60
2019-02-17T03:02:22.481Z,3.47
2019-02-17T03:05:29.626Z,3.17
2019-02-17T03:08:36.329Z,2.83
2019-02-17T03:11:43.543Z,2.47
2019-02-17T03:14:50.974Z,3.10
2019-02-17T03:17:58.232Z,3.10
2019-02-17T03:21:05.573Z,3.00
2019-02-17T03:24:12.792Z,2.40
2019-02-17T03:27:29.566Z,3.10
2019-02-17T03:30:36.957Z,2.70
2019-02-17T03:33:53.519Z,2.83
2019-02-17T03:37:00.821Z,2.50
2019-02-17T03:40:08.424Z,2.57
2019-02-17T03:43:14.555Z,2.27
2019-02-17T03:46:21.691Z,2.20
2019-02-17T03:49:29.029Z,2.90
2019-02-17T03:52:36.245Z,2.47
2019-02-17T03:55:43.456Z,3.20
2019-02-17T03:58:50.687Z,4.30
2019-02-17T04:01:57.821Z,3.17
2019-02-17T04:05:05.142Z,2.93
2019-02-17T04:08:12.345Z,3.67
2019-02-17T04:11:19.470Z,3.87
2019-02-17T04:14:26.696Z,4.03
2019-02-17T04:17:34.980Z,4.80
2019-02-17T04:20:42.145Z,6.30
2019-02-17T04:23:49.367Z,4.43
2019-02-17T04:26:56.599Z,5.43
2019-02-17T04:30:03.455Z,5.00
2019-02-17T04:33:20.210Z,5.80
2019-02-17T04:36:36.887Z,6.23
2019-02-17T04:39:53.490Z,5.93
2019-02-17T04:43:00.656Z,5.57
2019-02-17T04:46:07.867Z,5.07
2019-02-17T04:49:15.094Z,4.57
2019-02-17T04:52:22.215Z,4.77
2019-02-17T04:55:29.362Z,5.43
2019-02-17T04:58:36.513Z,5.10
2019-02-17T05:01:43.762Z,6.23
2019-02-17T05:04:50.905Z,6.33
2019-02-17T05:07:58.320Z,4.83
2019-02-17T05:11:04.621Z,5.47
2019-02-17T05:14:11.857Z,4.90
2019-02-17T05:17:19.110Z,5.83
2019-02-17T05:20:26.314Z,5.77
2019-02-17T05:23:33.741Z,4.63
2019-02-17T05:26:41.142Z,5.60
2019-02-17T05:29:48.281Z,5.40
2019-02-17T05:32:55.422Z,6.97
2019-02-17T05:36:02.640Z,6.57
2019-02-17T05:39:09.779Z,7.73
2019-02-17T05:42:17.019Z,6.63
2019-02-17T05:45:24.169Z,5.00
2019-02-17T05:48:31.457Z,7.63
2019-02-17T05:51:38.726Z,5.57
2019-02-17T05:54:45.849Z,6.70
2019-02-17T05:57:51.940Z,7.33
2019-02-17T06:01:03.680Z,7.23
2019-02-17T06:04:17.472Z,7.27
2019-02-17T06:07:24.684Z,6.50
2019-02-17T06:10:41.569Z,7.90
2019-02-17T06:13:58.132Z,6.33
2019-02-17T06:17:05.277Z,7.17
2019-02-17T06:20:12.831Z,9.50
2019-02-17T06:23:29.346Z,6.73
2019-02-17T06:26:36.656Z,7.83
2019-02-17T06:29:53.269Z,7.17
2019-02-17T06:33:11.108Z,6.63
2019-02-17T06:36:18.243Z,7.93
2019-02-17T06:39:25.459Z,8.50
2019-02-17T06:42:32.813Z,7.83
2019-02-17T06:45:49.411Z,7.37
2019-02-17T06:48:56.549Z,10.10
2019-02-17T06:52:03.875Z,8.97
2019-02-17T06:55:41.035Z,9.20
2019-02-17T06:58:48.444Z,8.80
2019-02-17T07:01:55.828Z,7.80
2019-02-17T07:05:10.072Z,9.53
2019-02-17T07:08:17.197Z,10.03
2019-02-17T07:11:24.418Z,8.53
2019-02-17T07:14:32.028Z,9.20
2019-02-17T07:17:39.272Z,9.53
2019-02-17T07:20:46.411Z,10.17
2019-02-17T07:23:53.730Z,9.00
2019-02-17T07:27:00.977Z,8.83
2019-02-17T07:30:09.384Z,8.60
2019-02-17T07:33:16.588Z,8.87
2019-02-17T07:36:23.754Z,9.30
2019-02-17T07:39:31.261Z,9.50
2019-02-17T07:42:38.388Z,12.33
2019-02-17T07:45:45.737Z,9.87
2019-02-17T07:48:52.901Z,9.90
2019-02-17T07:52:00.131Z,9.93
2019-02-17T07:55:08.043Z,10.33
2019-02-17T07:58:24.642Z,8.70
2019-02-17T08:01:31.988Z,9.50
2019-02-17T08:04:48.659Z,10.03
2019-02-17T08:08:05.351Z,10.33
2019-02-17T08:11:12.561Z,9.80
2019-02-17T08:14:19.725Z,9.73
2019-02-17T08:17:26.941Z,9.57
2019-02-17T08:20:36.468Z,9.33
2019-02-17T08:23:52.505Z,9.07
2019-02-17T08:27:09.304Z,10.93
2019-02-17T08:30:16.594Z,11.10
2019-02-17T08:33:33.389Z,10.43
2019-02-17T08:36:49.990Z,9.43
2019-02-17T08:39:57.217Z,9.73
2019-02-17T08:43:04.466Z,9.73
2019-02-17T08:46:21.179Z,10.73
2019-02-17T08:49:28.363Z,9.80
2019-02-17T08:52:35.859Z,10.10
2019-02-17T08:55:52.333Z,9.93
2019-02-17T08:58:59.672Z,12.47
2019-02-17T09:02:16.507Z,9.33
2019-02-17T09:05:23.726Z,10.00
2019-02-17T09:08:30.963Z,9.90
2019-02-17T09:11:38.322Z,7.77
2019-02-17T09:14:54.979Z,9.33
2019-02-17T09:18:02.168Z,9.30
2019-02-17T09:21:09.193Z,8.90
2019-02-17T09:24:16.502Z,8.10
2019-02-17T09:27:23.812Z,9.20
2019-02-17T09:30:31.019Z,7.17
2019-02-17T09:33:38.259Z,8.50
2019-02-17T09:36:54.855Z,8.87
2019-02-17T09:40:01.990Z,8.27
2019-02-17T09:43:09.589Z,7.77
2019-02-17T09:46:26.089Z,8.43
2019-02-17T09:49:33.305Z,7.30
2019-02-17T09:52:40.565Z,7.23
2019-02-17T09:55:58.108Z,7.77
2019-02-17T09:59:05.319Z,7.77
2019-02-17T10:02:12.535Z,7.17
2019-02-17T10:05:19.744Z,7.70
2019-02-17T10:08:26.998Z,7.73
2019-02-17T10:11:34.243Z,6.53
2019-02-17T10:14:41.476Z,7.33
2019-02-17T10:17:48.701Z,7.80
2019-02-17T10:20:56.008Z,6.73
2019-02-17T10:24:03.267Z,6.80
2019-02-17T10:27:10.853Z,6.73
2019-02-17T10:30:27.625Z,8.97
2019-02-17T10:33:35.122Z,9.20
2019-02-17T10:36:51.514Z,9.20
2019-02-17T10:39:58.762Z,10.53
2019-02-17T10:43:06.069Z,11.30
2019-02-17T10:46:22.692Z,10.70
2019-02-17T10:49:29.933Z,10.67
2019-02-17T10:52:37.163Z,11.13
2019-02-17T10:55:44.313Z,11.27
2019-02-17T10:58:52.745Z,10.20
2019-02-17T11:01:59.900Z,10.50
2019-02-17T11:05:07.357Z,9.30
2019-02-17T11:08:14.726Z,11.07
2019-02-17T11:11:21.882Z,10.67
2019-02-17T11:14:29.116Z,10.03
2019-02-17T11:17:45.874Z,10.50
2019-02-17T11:20:52.069Z,10.43
2019-02-17T11:23:59.310Z,10.30
2019-02-17T11:27:06.649Z,10.00
2019-02-17T11:30:14.648Z,10.83
2019-02-17T11:33:21.818Z,10.00
2019-02-17T11:36:27.435Z,11.23
2019-02-17T11:39:34.774Z,11.17
2019-02-17T11:42:42.031Z,10.07
2019-02-17T11:45:58.712Z,11.27
2019-02-17T11:49:15.398Z,11.63
2019-02-17T11:52:22.834Z,9.80
2019-02-17T11:55:39.405Z,9.53
2019-02-17T11:58:46.651Z,8.27
2019-02-17T12:02:03.359Z,9.20
2019-02-17T12:05:11.426Z,8.50
2019-02-17T12:08:18.777Z,9.17
2019-02-17T12:11:25.876Z,8.53
2019-02-17T12:14:33.956Z,7.17
2019-02-17T12:17:50.523Z,7.47
2019-02-17T12:21:03.491Z,8.27
2019-02-17T12:24:12.466Z,9.30
2019-02-17T12:27:24.324Z,7.67
2019-02-17T12:30:31.556Z,7.60
2019-02-17T12:33:38.703Z,6.43
2019-02-17T12:36:45.835Z,8.07
2019-02-17T12:39:53.236Z,8.30
2019-02-17T12:43:00.384Z,6.37
2019-02-17T12:46:07.527Z,6.37
2019-02-17T12:49:14.666Z,6.83
2019-02-17T12:52:21.916Z,6.03
2019-02-17T12:55:29.049Z,6.47
2019-02-17T12:58:36.417Z,5.33
2019-02-17T13:01:45.393Z,6.50
2019-02-17T13:04:52.644Z,6.07
2019-02-17T13:07:59.845Z,4.97
2019-02-17T13:11:07.174Z,5.47
2019-02-17T13:14:14.407Z,5.83
2019-02-17T13:17:21.570Z,5.13
2019-02-17T13:20:28.699Z,5.03
2019-02-17T13:23:35.845Z,5.70
2019-02-17T13:26:42.976Z,5.30
2019-02-17T13:29:50.415Z,6.80
2019-02-17T13:32:57.541Z,5.23
2019-02-17T13:36:05.509Z,5.33
2019-02-17T13:39:12.689Z,6.10
2019-02-17T13:42:28.943Z,6.03
2019-02-17T13:45:36.174Z,4.70
2019-02-17T13:48:43.389Z,5.67
2019-02-17T13:51:50.596Z,5.57
2019-02-17T13:54:57.830Z,4.77
2019-02-17T13:58:14.727Z,5.10
2019-02-17T14:01:21.959Z,6.13
2019-02-17T14:04:29.493Z,5.70
2019-02-17T14:07:46.106Z,5.57
2019-02-17T14:11:02.847Z,4.93
2019-02-17T14:14:19.453Z,5.03
2019-02-17T14:17:26.639Z,5.53
2019-02-17T14:20:33.945Z,5.93
2019-02-17T14:23:50.715Z,5.80
2019-02-17T14:26:57.988Z,5.33
2019-02-17T14:30:14.883Z,5.57
2019-02-17T14:33:31.494Z,4.93
2019-02-17T14:36:38.764Z,5.07
2019-02-17T14:39:55.473Z,5.50
2019-02-17T14:43:02.619Z,5.63
2019-02-17T14:46:10.828Z,5.00
2019-02-17T14:49:17.964Z,6.13
2019-02-17T14:52:25.147Z,5.37
2019-02-17T14:55:32.396Z,4.93
2019-02-17T14:58:40.582Z,4.30
2019-02-17T15:01:48.929Z,4.37
2019-02-17T15:04:56.154Z,4.40
2019-02-17T15:08:03.491Z,4.13
2019-02-17T15:11:10.627Z,4.57
2019-02-17T15:14:17.813Z,5.33
2019-02-17T15:17:25.174Z,4.20
2019-02-17T15:20:32.318Z,6.10
2019-02-17T15:23:49.070Z,4.67
2019-02-17T15:26:56.207Z,4.90
2019-02-17T15:30:03.819Z,5.37
2019-02-17T15:33:20.678Z,5.27
2019-02-17T15:36:37.110Z,5.53
2019-02-17T15:39:44.135Z,5.07
2019-02-17T15:42:51.288Z,6.67
2019-02-17T15:45:58.490Z,5.00
2019-02-17T15:49:05.641Z,5.23
2019-02-17T15:52:12.934Z,5.50
2019-02-17T15:55:20.136Z,5.23
2019-02-17T15:58:27.286Z,5.40
2019-02-17T16:01:34.438Z,6.10
2019-02-17T16:04:41.606Z,5.17
2019-02-17T16:07:48.796Z,4.60
2019-02-17T16:10:56.033Z,4.77
2019-02-17T16:14:03.250Z,4.83
2019-02-17T16:17:09.509Z,5.73
2019-02-17T16:20:26.337Z,5.53
2019-02-17T16:23:33.584Z,5.63
2019-02-17T16:26:50.363Z,5.97
2019-02-17T16:30:10.176Z,6.30
2019-02-17T16:33:17.418Z,6.90
2019-02-17T16:36:24.657Z,6.07
2019-02-17T16:39:41.481Z,4.90
2019-02-17T16:42:48.711Z,5.97
2019-02-17T16:45:55.961Z,5.43
2019-02-17T16:49:03.180Z,5.53
2019-02-17T16:52:19.903Z,5.03
2019-02-17T16:55:27.231Z,6.00
2019-02-17T16:58:43.784Z,8.47
2019-02-17T17:01:51.005Z,6.93
2019-02-17T17:04:58.245Z,8.03
2019-02-17T17:08:05.459Z,8.73
2019-02-17T17:11:12.609Z,7.63
2019-02-17T17:14:19.883Z,7.47
2019-02-17T17:17:36.575Z,8.30
2019-02-17T17:20:43.841Z,8.73
2019-02-17T17:24:00.624Z,10.33
2019-02-17T17:27:17.359Z,8.20
2019-02-17T17:30:24.514Z,7.13
2019-02-17T17:33:31.751Z,7.33
2019-02-17T17:36:38.916Z,7.07
2019-02-17T17:39:46.077Z,6.33
2019-02-17T17:42:53.332Z,5.77
2019-02-17T17:46:00.486Z,7.30
2019-02-17T17:49:19.486Z,7.03
2019-02-17T17:52:24.593Z,6.13
2019-02-17T17:55:41.275Z,7.27
2019-02-17T17:58:48.522Z,6.77
2019-02-17T18:02:05.388Z,7.13
2019-02-17T18:05:22.090Z,6.57
2019-02-17T18:08:29.532Z,7.23
2019-02-17T18:11:46.046Z,7.43
2019-02-17T18:14:53.183Z,8.63
2019-02-17T18:18:00.490Z,8.70
2019-02-17T18:21:17.234Z,9.00
2019-02-17T18:24:26.647Z,8.80
2019-02-17T18:27:33.318Z,8.03
2019-02-17T18:30:50.375Z,6.43
2019-02-17T18:34:06.690Z,7.60
2019-02-17T18:37:13.923Z,7.10
2019-02-17T18:40:21.373Z,7.10
2019-02-17T18:43:37.857Z,7.90
2019-02-17T18:46:44.893Z,8.17
2019-02-17T18:49:52.110Z,6.87
2019-02-17T18:52:59.328Z,6.90
2019-02-17T18:56:06.540Z,9.30
2019-02-17T18:59:13.682Z,8.73
2019-02-17T19:02:21.019Z,9.03
2019-02-17T19:05:32.124Z,7.17
2019-02-17T19:08:46.719Z,7.63
2019-02-17T19:12:03.406Z,6.73
2019-02-17T19:15:20.207Z,7.97
2019-02-17T19:18:27.342Z,5.80
2019-02-17T19:21:34.593Z,8.23
2019-02-17T19:24:41.782Z,7.60
2019-02-17T19:27:49.210Z,7.13
2019-02-17T19:31:05.842Z,6.13
2019-02-17T19:34:12.977Z,6.37
2019-02-17T19:37:20.203Z,7.03
2019-02-17T19:40:27.456Z,5.27
2019-02-17T19:43:34.592Z,6.23
2019-02-17T19:46:40.791Z,6.60
2019-02-17T19:49:48.092Z,5.70
2019-02-17T19:52:55.333Z,8.70
2019-02-17T19:56:02.466Z,7.40
2019-02-17T19:59:09.784Z,7.30
2019-02-17T20:02:18.566Z,6.97
2019-02-17T20:05:27.585Z,5.93
2019-02-17T20:08:33.326Z,7.53
2019-02-17T20:11:40.781Z,6.53
2019-02-17T20:14:48.070Z,8.43
2019-02-17T20:17:55.254Z,7.27
2019-02-17T20:21:02.480Z,7.50
2019-02-17T20:24:09.628Z,7.70
2019-02-17T20:27:26.698Z,7.80
2019-02-17T20:30:43.303Z,7.57
2019-02-17T20:33:50.564Z,8.43
2019-02-17T20:36:57.704Z,6.93
2019-02-17T20:40:05.253Z,5.80
2019-02-17T20:43:21.701Z,7.37
2019-02-17T20:46:28.933Z,6.47
2019-02-17T20:49:36.170Z,6.23
2019-02-17T20:52:52.954Z,9.60
2019-02-17T20:56:00.194Z,9.77
2019-02-17T20:59:16.815Z,8.87
2019-02-17T21:02:24.115Z,7.53
2019-02-17T21:05:31.450Z,6.73
2019-02-17T21:08:37.936Z,6.83
2019-02-17T21:11:45.227Z,6.20
2019-02-17T21:14:52.470Z,5.27
2019-02-17T21:17:59.598Z,4.53
2019-02-17T21:21:07.189Z,6.20
2019-02-17T21:24:14.444Z,5.63
2019-02-17T21:27:21.976Z,5.77
2019-02-17T21:30:38.500Z,4.70
2019-02-17T21:33:45.631Z,5.37
2019-02-17T21:36:52.775Z,6.20
2019-02-17T21:40:00.228Z,5.30
2019-02-17T21:43:17.116Z,4.90
2019-02-17T21:46:33.568Z,5.80
2019-02-17T21:49:40.715Z,6.63
2019-02-17T21:52:47.840Z,5.37
2019-02-17T21:55:54.988Z,5.97
2019-02-17T21:59:02.426Z,5.30
2019-02-17T22:02:09.644Z,6.47
2019-02-17T22:05:26.346Z,5.67
2019-02-17T22:08:33.575Z,3.97
2019-02-17T22:11:50.323Z,5.03
2019-02-17T22:14:57.492Z,4.67
2019-02-17T22:18:04.801Z,5.27
2019-02-17T22:21:21.888Z,5.07
2019-02-17T22:24:38.320Z,5.33
2019-02-17T22:27:45.531Z,4.97
2019-02-17T22:30:52.747Z,5.57
2019-02-17T22:34:00.058Z,5.90
2019-02-17T22:37:16.668Z,6.23
2019-02-17T22:40:22.196Z,5.13
2019-02-17T22:43:29.335Z,5.27
2019-02-17T22:46:36.518Z,5.80
2019-02-17T22:49:43.710Z,5.47
2019-02-17T22:52:50.943Z,6.77
2019-02-17T22:55:58.177Z,6.10
2019-02-17T22:59:05.442Z,5.70
2019-02-17T23:02:12.760Z,6.93
2019-02-17T23:05:20.114Z,4.60
2019-02-17T23:08:36.632Z,4.97
2019-02-17T23:11:43.761Z,6.27
2019-02-17T23:14:50.900Z,6.63
2019-02-17T23:17:58.132Z,5.47
2019-02-17T23:21:05.431Z,4.50
2019-02-17T23:24:12.724Z,5.30
2019-02-17T23:27:19.855Z,5.27
2019-02-17T23:30:27.070Z,5.73
2019-02-17T23:33:34.309Z,5.27
2019-02-17T23:36:51.091Z,5.80
2019-02-17T23:39:58.224Z,4.47
2019-02-17T23:43:05.770Z,5.03
2019-02-17T23:46:11.985Z,5.13
2019-02-17T23:49:19.281Z,6.33
2019-02-17T23:52:26.424Z,4.73
2019-02-17T23:55:33.564Z,5.60
2019-02-17T23:58:40.705Z,4.60
